createdAt,value
2017-07-23T00:00:15.230Z,94.8
2017-07-23T00:01:16.893Z,94.7
2017-07-23T00:02:19.484Z,94.6
2017-07-23T00:03:21.084Z,95.0
2017-07-23T00:04:22.685Z,95.2
2017-07-23T00:05:25.227Z,94.8
2017-07-23T00:06:26.823Z,93.3
2017-07-23T00:07:28.430Z,93.8
2017-07-23T00:08:30.031Z,93.5
2017-07-23T00:09:31.712Z,93.7
2017-07-23T00:10:33.309Z,94.8
2017-07-23T00:11:34.911Z,94.7
2017-07-23T00:12:36.507Z,94.7
2017-07-23T00:13:38.105Z,95.2
2017-07-23T00:14:39.758Z,95.4
2017-07-23T00:15:41.453Z,95.6
2017-07-23T00:16:44.263Z,95.3
2017-07-23T00:17:47.974Z,95.2
2017-07-23T00:18:51.089Z,95.4
2017-07-23T00:19:54.336Z,95.2
2017-07-23T00:20:57.200Z,95.6
2017-07-23T00:21:59.391Z,94.2
2017-07-23T00:23:02.439Z,94.8
2017-07-23T00:24:06.359Z,93.9
2017-07-23T00:25:09.033Z,95.3
2017-07-23T00:26:10.641Z,95.6
2017-07-23T00:27:12.236Z,95.6
2017-07-23T00:28:13.838Z,95.6
2017-07-23T00:29:15.433Z,95.5
2017-07-23T00:30:17.033Z,96.0
2017-07-23T00:31:18.633Z,95.6
2017-07-23T00:32:20.237Z,95.0
2017-07-23T00:33:21.849Z,95.3
2017-07-23T00:34:23.447Z,95.4
2017-07-23T00:35:25.045Z,94.9
2017-07-23T00:36:26.655Z,95.0
2017-07-23T00:37:28.255Z,94.8
2017-07-23T00:38:29.855Z,94.7
2017-07-23T00:39:31.453Z,95.1
2017-07-23T00:40:33.055Z,93.9
2017-07-23T00:41:34.652Z,94.3
2017-07-23T00:42:36.251Z,93.8
2017-07-23T00:43:38.415Z,94.9
2017-07-23T00:44:40.016Z,94.8
2017-07-23T00:45:41.615Z,94.4
2017-07-23T00:46:43.215Z,95.8
2017-07-23T00:47:44.823Z,94.8
2017-07-23T00:48:46.414Z,95.6
2017-07-23T00:49:48.013Z,95.6
2017-07-23T00:50:49.615Z,95.5
2017-07-23T00:51:51.216Z,95.0
2017-07-23T00:53:12.115Z,92.7
2017-07-23T00:54:13.762Z,92.6
2017-07-23T00:55:15.392Z,91.2
2017-07-23T00:56:17.006Z,92.3
2017-07-23T00:57:18.614Z,92.9
2017-07-23T00:58:20.215Z,93.0
2017-07-23T00:59:21.812Z,94.2
2017-07-23T01:00:23.424Z,93.3
2017-07-23T01:01:25.021Z,93.3
2017-07-23T01:02:27.102Z,93.6
2017-07-23T01:03:29.640Z,93.7
2017-07-23T01:04:31.240Z,94.7
2017-07-23T01:05:32.838Z,95.2
2017-07-23T01:06:35.224Z,95.9
2017-07-23T01:07:36.825Z,96.1
2017-07-23T01:08:38.423Z,96.0
2017-07-23T01:09:40.023Z,95.5
2017-07-23T01:10:41.625Z,96.4
2017-07-23T01:11:43.217Z,96.7
2017-07-23T01:12:44.816Z,97.3
2017-07-23T01:13:46.416Z,97.1
2017-07-23T01:14:48.020Z,98.2
2017-07-23T01:15:49.629Z,98.4
2017-07-23T01:16:51.228Z,99.0
2017-07-23T01:17:52.827Z,98.7
2017-07-23T01:18:54.427Z,98.7
2017-07-23T01:19:56.026Z,99.2
2017-07-23T01:20:57.627Z,98.6
2017-07-23T01:21:59.231Z,98.8
2017-07-23T01:23:01.743Z,98.6
2017-07-23T01:24:04.289Z,98.4
2017-07-23T01:25:05.883Z,98.6
2017-07-23T01:26:07.483Z,98.1
2017-07-23T01:27:11.320Z,98.1
2017-07-23T01:28:14.889Z,98.2
2017-07-23T01:29:16.563Z,98.2
2017-07-23T01:30:18.212Z,98.8
2017-07-23T01:31:20.013Z,98.5
2017-07-23T01:32:21.634Z,99.2
2017-07-23T01:33:23.654Z,99.4
2017-07-23T01:34:25.392Z,99.4
2017-07-23T01:35:27.558Z,98.6
2017-07-23T01:36:32.383Z,99.0
2017-07-23T01:37:33.974Z,98.8
2017-07-23T01:38:35.569Z,99.3
2017-07-23T01:39:37.921Z,98.5
2017-07-23T01:40:39.525Z,99.6
2017-07-23T01:41:41.122Z,100.0
2017-07-23T01:42:42.725Z,100.0
2017-07-23T01:43:44.324Z,100.0
2017-07-23T01:44:45.920Z,100.0
2017-07-23T01:45:47.519Z,100.0
2017-07-23T01:46:49.119Z,100.0
2017-07-23T01:47:50.763Z,100.0
2017-07-23T01:48:52.359Z,100.0
2017-07-23T01:49:53.971Z,100.0
2017-07-23T01:50:55.566Z,100.0
2017-07-23T01:51:57.162Z,100.0
2017-07-23T01:52:58.757Z,100.0
2017-07-23T01:54:00.358Z,100.0
2017-07-23T01:55:01.962Z,100.0
2017-07-23T01:56:04.343Z,100.0
2017-07-23T01:57:06.792Z,100.0
2017-07-23T01:58:08.410Z,100.0
2017-07-23T01:59:09.992Z,100.0
2017-07-23T02:00:11.594Z,100.0
2017-07-23T02:01:13.191Z,100.0
2017-07-23T02:02:14.797Z,100.0
2017-07-23T02:03:16.393Z,100.0
2017-07-23T02:04:18.010Z,100.0
2017-07-23T02:05:19.615Z,100.0
2017-07-23T02:06:21.210Z,100.0
2017-07-23T02:07:23.659Z,100.0
2017-07-23T02:08:25.261Z,100.0
2017-07-23T02:09:26.859Z,100.0
2017-07-23T02:10:28.462Z,100.0
2017-07-23T02:11:30.061Z,100.0
2017-07-23T02:12:31.663Z,100.0
2017-07-23T02:13:33.258Z,100.0
2017-07-23T02:14:34.856Z,100.0
2017-07-23T02:15:37.019Z,100.0
2017-07-23T02:16:37.998Z,100.0
2017-07-23T02:17:39.595Z,100.0
2017-07-23T02:18:41.882Z,100.0
2017-07-23T02:19:43.484Z,100.0
2017-07-23T02:20:45.084Z,100.0
2017-07-23T02:21:46.679Z,100.0
2017-07-23T02:22:48.276Z,100.0
2017-07-23T02:23:49.878Z,100.0
2017-07-23T02:24:51.477Z,100.0
2017-07-23T02:25:53.103Z,100.0
2017-07-23T02:26:54.706Z,100.0
2017-07-23T02:27:57.204Z,100.0
2017-07-23T02:28:59.652Z,100.0
2017-07-23T02:30:01.256Z,100.0
2017-07-23T02:31:02.861Z,100.0
2017-07-23T02:32:04.461Z,100.0
2017-07-23T02:33:06.060Z,100.0
2017-07-23T02:34:08.259Z,100.0
2017-07-23T02:35:10.634Z,100.0
2017-07-23T02:36:12.238Z,100.0
2017-07-23T02:37:13.834Z,100.0
2017-07-23T02:38:15.436Z,100.0
2017-07-23T02:39:17.032Z,100.0
2017-07-23T02:40:18.638Z,100.0
2017-07-23T02:41:20.238Z,100.0
2017-07-23T02:42:21.835Z,100.0
2017-07-23T02:43:23.434Z,100.0
2017-07-23T02:44:25.032Z,100.0
2017-07-23T02:45:26.639Z,100.0
2017-07-23T02:46:28.236Z,100.0
2017-07-23T02:47:29.837Z,100.0
2017-07-23T02:48:31.439Z,100.0
2017-07-23T02:49:33.037Z,100.0
2017-07-23T02:50:34.636Z,100.0
2017-07-23T02:51:37.043Z,100.0
2017-07-23T02:52:38.641Z,100.0
2017-07-23T02:53:40.243Z,100.0
2017-07-23T02:54:41.844Z,100.0
2017-07-23T02:55:43.446Z,100.0
2017-07-23T02:56:45.044Z,100.0
2017-07-23T02:57:46.640Z,100.0
2017-07-23T02:58:48.243Z,100.0
2017-07-23T02:59:49.842Z,100.0
2017-07-23T03:00:51.443Z,100.0
2017-07-23T03:01:53.048Z,100.0
2017-07-23T03:02:54.652Z,100.0
2017-07-23T03:03:56.249Z,100.0
2017-07-23T03:04:57.852Z,100.0
2017-07-23T03:05:59.451Z,100.0
2017-07-23T03:07:01.049Z,100.0
2017-07-23T03:08:02.652Z,100.0
2017-07-23T03:09:04.697Z,100.0
2017-07-23T03:10:07.136Z,100.0
2017-07-23T03:11:08.729Z,100.0
2017-07-23T03:12:10.327Z,100.0
2017-07-23T03:13:11.926Z,100.0
2017-07-23T03:14:13.526Z,100.0
2017-07-23T03:15:15.126Z,100.0
2017-07-23T03:16:16.731Z,100.0
2017-07-23T03:17:18.329Z,100.0
2017-07-23T03:18:20.647Z,100.0
2017-07-23T03:19:22.244Z,100.0
2017-07-23T03:20:23.845Z,100.0
2017-07-23T03:21:25.444Z,100.0
2017-07-23T03:22:27.952Z,100.0
2017-07-23T03:23:29.553Z,100.0
2017-07-23T03:24:31.156Z,100.0
2017-07-23T03:25:32.755Z,100.0
2017-07-23T03:26:34.355Z,100.0
2017-07-23T03:27:35.952Z,100.0
2017-07-23T03:28:37.552Z,100.0
2017-07-23T03:29:39.149Z,100.0
2017-07-23T03:30:40.749Z,100.0
2017-07-23T03:31:42.350Z,100.0
2017-07-23T03:32:43.947Z,100.0
2017-07-23T03:33:45.544Z,100.0
2017-07-23T03:34:48.133Z,100.0
2017-07-23T03:35:49.736Z,100.0
2017-07-23T03:36:51.339Z,100.0
2017-07-23T03:37:54.624Z,100.0
2017-07-23T03:38:56.234Z,100.0
2017-07-23T03:40:02.531Z,100.0
2017-07-23T03:41:08.065Z,100.0
2017-07-23T03:42:13.030Z,100.0
2017-07-23T03:43:19.599Z,100.0
2017-07-23T06:22:57.443Z,100.0
2017-07-23T06:23:59.077Z,100.0
2017-07-23T06:25:50.725Z,100.0
2017-07-23T06:26:52.329Z,100.0
2017-07-23T06:28:44.254Z,100.0
2017-07-23T06:29:45.853Z,100.0
2017-07-23T06:31:37.506Z,100.0
2017-07-23T06:32:39.105Z,100.0
2017-07-23T06:34:30.970Z,100.0
2017-07-23T06:35:32.571Z,100.0
2017-07-23T06:37:24.226Z,100.0
2017-07-23T06:38:25.824Z,100.0
2017-07-23T06:40:18.452Z,100.0
2017-07-23T06:41:20.050Z,100.0
2017-07-23T06:43:11.712Z,100.0
2017-07-23T06:44:13.339Z,100.0
2017-07-23T06:46:05.452Z,100.0
2017-07-23T06:47:07.053Z,100.0
2017-07-23T06:48:08.661Z,100.0
2017-07-23T06:49:10.266Z,100.0
2017-07-23T06:50:11.868Z,100.0
2017-07-23T06:51:13.469Z,100.0
2017-07-23T06:52:15.070Z,100.0
2017-07-23T06:53:16.675Z,100.0
2017-07-23T06:54:18.276Z,100.0
2017-07-23T06:55:19.877Z,100.0
2017-07-23T06:56:21.479Z,100.0
2017-07-23T06:57:23.084Z,100.0
2017-07-23T06:58:24.687Z,100.0
2017-07-23T06:59:26.287Z,100.0
2017-07-23T07:00:29.004Z,100.0
2017-07-23T07:01:30.604Z,100.0
2017-07-23T07:02:32.206Z,100.0
2017-07-23T07:03:33.806Z,100.0
2017-07-23T07:04:35.409Z,100.0
2017-07-23T07:05:37.012Z,100.0
2017-07-23T07:06:38.619Z,100.0
2017-07-23T07:07:40.221Z,100.0
2017-07-23T07:08:41.819Z,100.0
2017-07-23T07:09:43.423Z,100.0
2017-07-23T07:10:45.024Z,100.0
2017-07-23T07:11:46.634Z,100.0
2017-07-23T07:12:48.235Z,100.0
2017-07-23T07:13:49.835Z,100.0
2017-07-23T07:14:52.023Z,100.0
2017-07-23T07:15:54.533Z,100.0
2017-07-23T07:16:56.131Z,100.0
2017-07-23T07:17:58.476Z,100.0
2017-07-23T07:19:00.083Z,100.0
2017-07-23T07:20:01.685Z,98.5
2017-07-23T07:21:03.288Z,97.7
2017-07-23T07:22:04.889Z,98.2
2017-07-23T07:23:06.487Z,99.2
2017-07-23T07:24:08.085Z,98.5
2017-07-23T07:25:09.686Z,99.3
2017-07-23T07:26:11.288Z,100.0
2017-07-23T07:27:12.895Z,100.0
2017-07-23T07:28:15.099Z,100.0
2017-07-23T07:29:16.705Z,98.1
2017-07-23T07:30:18.302Z,95.8
2017-07-23T07:31:19.899Z,95.3
2017-07-23T07:32:21.525Z,97.4
2017-07-23T07:33:23.121Z,94.3
2017-07-23T07:34:24.723Z,93.5
2017-07-23T07:35:26.326Z,95.7
2017-07-23T07:36:27.925Z,94.8
2017-07-23T07:37:30.233Z,91.7
2017-07-23T07:38:31.833Z,91.0
2017-07-23T08:37:57.167Z,84.7
2017-07-23T08:38:58.763Z,82.1
2017-07-23T08:40:50.415Z,79.6
2017-07-23T08:41:52.013Z,79.6
2017-07-23T08:43:43.973Z,82.6
2017-07-23T08:44:46.054Z,80.7
2017-07-23T08:46:37.173Z,78.5
2017-07-23T08:47:39.116Z,77.7
2017-07-23T08:49:30.979Z,82.7
2017-07-23T08:50:32.577Z,77.4
2017-07-23T08:52:24.226Z,76.0
2017-07-23T08:53:25.824Z,76.9
2017-07-23T08:55:17.896Z,72.3
2017-07-23T08:56:19.494Z,74.4
2017-07-23T08:58:11.143Z,72.6
2017-07-23T08:59:12.743Z,71.0
2017-07-23T09:01:04.824Z,71.0
2017-07-23T09:02:07.191Z,67.8
2017-07-23T09:03:58.848Z,72.2
2017-07-23T09:05:00.443Z,74.1
2017-07-23T09:06:52.295Z,68.4
2017-07-23T09:07:53.902Z,67.8
2017-07-23T09:09:46.421Z,69.6
2017-07-23T09:10:48.015Z,67.8
2017-07-23T09:12:40.001Z,67.7
2017-07-23T09:13:42.132Z,69.4
2017-07-23T09:15:33.787Z,71.3
2017-07-23T09:16:35.383Z,71.7
2017-07-23T09:18:27.373Z,67.9
2017-07-23T09:19:28.971Z,70.8
2017-07-23T09:21:20.620Z,70.5
2017-07-23T09:22:22.218Z,69.6
2017-07-23T09:24:14.067Z,73.7
2017-07-23T09:25:15.669Z,69.2
2017-07-23T09:27:07.313Z,71.6
2017-07-23T09:28:08.912Z,73.1
2017-07-23T09:30:00.959Z,73.9
2017-07-23T09:31:02.559Z,74.2
2017-07-23T09:32:55.212Z,70.4
2017-07-23T09:33:56.811Z,71.7
2017-07-23T09:35:48.759Z,68.4
2017-07-23T09:36:50.358Z,68.1
2017-07-23T09:38:42.007Z,66.4
2017-07-23T09:39:43.618Z,67.5
2017-07-23T09:41:36.471Z,67.2
2017-07-23T09:42:38.072Z,65.8
2017-07-23T09:44:29.721Z,70.6
2017-07-23T09:45:31.321Z,69.9
2017-07-23T09:47:23.786Z,66.8
2017-07-23T09:48:26.227Z,62.1
2017-07-23T09:50:17.878Z,64.8
2017-07-23T09:51:19.475Z,67.6
2017-07-23T09:53:11.331Z,66.9
2017-07-23T09:54:12.929Z,67.9
2017-07-23T09:56:04.586Z,71.1
2017-07-23T09:57:06.181Z,67.1
2017-07-23T09:58:58.157Z,64.6
2017-07-23T09:59:59.761Z,65.7
2017-07-23T10:01:01.362Z,66.9
2017-07-23T10:02:02.965Z,66.3
2017-07-23T10:05:03.668Z,67.6
2017-07-23T10:29:49.911Z,61.2
2017-07-23T11:18:02.194Z,60.5
2017-07-23T11:19:05.049Z,56.9
2017-07-23T11:20:07.889Z,56.0
2017-07-23T11:21:10.173Z,54.2
2017-07-23T11:22:14.846Z,57.6
2017-07-23T11:23:18.189Z,56.1
2017-07-23T11:24:21.121Z,54.7
2017-07-23T11:25:23.484Z,54.6
2017-07-23T11:26:25.965Z,54.8
2017-07-23T11:27:28.905Z,55.1
2017-07-23T11:28:30.503Z,55.3
2017-07-23T11:29:32.101Z,53.9
2017-07-23T11:30:33.715Z,53.8
2017-07-23T11:31:35.363Z,48.5
2017-07-23T11:32:36.980Z,51.9
2017-07-23T11:33:38.590Z,49.9
2017-07-23T11:34:40.187Z,52.1
2017-07-23T12:35:53.398Z,35.0
2017-07-23T12:40:50.597Z,36.7
2017-07-23T18:48:21.196Z,67.0
2017-07-23T18:55:42.192Z,65.1
2017-07-23T19:50:47.775Z,81.0
2017-07-23T19:51:49.358Z,80.4
2017-07-23T19:53:40.998Z,80.9
2017-07-23T19:54:42.584Z,81.4
2017-07-23T19:56:34.548Z,82.2
2017-07-23T19:57:36.152Z,82.6
2017-07-23T19:59:27.795Z,82.5
2017-07-23T20:00:29.395Z,82.8
2017-07-23T20:02:21.381Z,82.7
2017-07-23T20:03:22.959Z,82.4
2017-07-23T20:05:14.603Z,82.3
2017-07-23T20:06:16.221Z,82.0
2017-07-23T20:08:08.260Z,81.1
2017-07-23T20:09:09.869Z,80.9
2017-07-23T20:11:01.585Z,80.8
2017-07-23T20:12:03.176Z,81.0
2017-07-23T20:13:55.159Z,80.8
2017-07-23T20:14:56.828Z,80.4
2017-07-23T20:16:48.477Z,82.1
2017-07-23T20:17:50.084Z,81.3
2017-07-23T20:19:42.151Z,80.9
2017-07-23T20:20:43.761Z,80.2
2017-07-23T20:22:35.425Z,80.9
2017-07-23T20:23:37.017Z,80.7
2017-07-23T20:24:38.629Z,79.4
2017-07-23T20:25:40.230Z,80.4
2017-07-23T20:26:41.836Z,80.1
2017-07-23T20:27:43.452Z,80.3
2017-07-23T20:28:45.048Z,81.5
2017-07-23T20:29:46.658Z,81.2
2017-07-23T20:30:48.249Z,82.5
2017-07-23T20:31:49.858Z,83.4
2017-07-23T20:32:51.454Z,84.6
2017-07-23T20:33:53.064Z,83.3
2017-07-23T20:34:54.661Z,83.9
2017-07-23T20:35:56.268Z,83.0
2017-07-23T20:36:57.862Z,83.0
2017-07-23T20:37:59.454Z,83.0
2017-07-23T20:39:01.050Z,84.7
2017-07-23T20:40:02.659Z,85.8
2017-07-23T20:41:04.257Z,86.4
2017-07-23T20:42:05.858Z,86.3
2017-07-23T20:43:07.451Z,85.7
2017-07-23T20:44:09.064Z,86.9
2017-07-23T20:45:10.656Z,87.2
2017-07-23T20:46:12.253Z,86.8
2017-07-23T20:47:13.858Z,85.2
2017-07-23T20:48:15.454Z,86.3
2017-07-23T20:49:17.049Z,86.4
2017-07-23T20:50:18.661Z,86.4
2017-07-23T20:51:20.255Z,87.1
2017-07-23T20:52:21.851Z,86.1
2017-07-23T20:53:23.448Z,86.3
2017-07-23T20:54:25.041Z,86.1
2017-07-23T20:55:26.640Z,86.3
2017-07-23T20:56:28.247Z,86.9
2017-07-23T20:57:30.307Z,86.4
2017-07-23T20:58:31.906Z,85.6
2017-07-23T20:59:33.514Z,85.7
2017-07-23T21:00:35.105Z,85.4
2017-07-23T21:01:36.697Z,85.7
2017-07-23T21:02:38.315Z,85.8
2017-07-23T21:03:39.908Z,86.1
2017-07-23T21:04:41.512Z,86.6
2017-07-23T21:05:43.120Z,86.1
2017-07-23T21:06:44.725Z,88.0
2017-07-23T21:07:46.321Z,87.6
2017-07-23T21:08:47.929Z,86.9
2017-07-23T21:09:49.521Z,88.0
2017-07-23T21:10:51.132Z,87.7
2017-07-23T21:11:52.726Z,87.9
2017-07-23T21:12:54.340Z,87.2
2017-07-23T21:13:55.947Z,88.0
2017-07-23T21:14:57.602Z,87.4
2017-07-23T21:15:59.206Z,87.6
2017-07-23T21:17:00.812Z,87.0
2017-07-23T21:18:02.407Z,87.2
2017-07-23T21:19:04.000Z,87.4
2017-07-23T21:20:05.599Z,87.1
2017-07-23T21:21:07.192Z,87.8
2017-07-23T21:22:08.801Z,87.3
2017-07-23T21:23:10.423Z,87.3
2017-07-23T21:24:12.008Z,87.8
2017-07-23T21:25:13.616Z,87.4
2017-07-23T21:26:15.223Z,87.8
2017-07-23T21:27:16.833Z,87.3
2017-07-23T21:28:18.443Z,87.5
2017-07-23T21:29:20.047Z,87.2
2017-07-23T21:30:21.641Z,87.4
2017-07-23T21:31:23.251Z,87.4
2017-07-23T21:32:24.856Z,87.9
2017-07-23T21:33:26.554Z,88.6
2017-07-23T21:34:28.154Z,89.2
2017-07-23T21:35:29.749Z,89.0
2017-07-23T21:36:31.346Z,89.0
2017-07-23T21:37:32.988Z,89.3
2017-07-23T21:38:34.622Z,89.2
2017-07-23T21:39:36.597Z,87.8
2017-07-23T21:40:38.225Z,87.9
2017-07-23T21:41:39.829Z,88.1
2017-07-23T21:42:41.420Z,88.0
2017-07-23T21:43:43.025Z,87.9
2017-07-23T21:44:44.633Z,87.7
2017-07-23T21:45:46.226Z,87.6
2017-07-23T21:46:47.842Z,88.1
2017-07-23T21:47:49.448Z,87.8
2017-07-23T21:48:51.056Z,88.8
2017-07-23T21:49:52.666Z,89.1
2017-07-23T21:50:54.264Z,88.5
2017-07-23T21:51:56.499Z,88.1
2017-07-23T21:52:58.109Z,87.6
2017-07-23T21:53:59.702Z,89.2
2017-07-23T21:55:01.311Z,89.4
2017-07-23T21:56:02.920Z,88.6
2017-07-23T21:57:04.521Z,88.9
2017-07-23T21:58:06.158Z,89.3
2017-07-23T21:59:07.892Z,89.2
2017-07-23T22:00:09.487Z,88.7
2017-07-23T22:01:11.083Z,89.0
2017-07-23T22:02:12.680Z,87.9
2017-07-23T22:03:14.292Z,88.1
2017-07-23T22:04:15.888Z,87.8
2017-07-23T22:05:17.495Z,88.2
2017-07-23T22:06:19.087Z,88.8
2017-07-23T22:07:20.682Z,88.7
2017-07-23T22:08:22.278Z,89.1
2017-07-23T22:09:23.882Z,89.9
2017-07-23T22:10:25.499Z,88.3
2017-07-23T22:11:27.161Z,89.1
2017-07-23T22:12:28.773Z,88.4
2017-07-23T22:13:30.410Z,89.9
2017-07-23T22:14:31.978Z,89.1
2017-07-23T22:15:33.574Z,89.1
2017-07-23T22:16:35.177Z,89.7
2017-07-23T22:17:36.787Z,88.5
2017-07-23T22:18:38.378Z,89.5
2017-07-23T22:19:40.926Z,89.9
2017-07-23T22:20:48.221Z,89.4
2017-07-23T22:21:49.780Z,89.5
2017-07-23T22:22:51.458Z,90.2
2017-07-23T22:23:53.052Z,89.5
2017-07-23T22:24:54.945Z,89.9
2017-07-23T22:25:56.620Z,89.1
2017-07-23T22:26:58.307Z,89.0
2017-07-23T22:27:59.969Z,90.0
2017-07-23T22:29:01.564Z,89.6
2017-07-23T22:30:03.178Z,89.1
2017-07-23T22:31:04.770Z,89.7
2017-07-23T22:32:06.370Z,90.0
2017-07-23T22:33:07.978Z,89.4
2017-07-23T22:34:09.585Z,89.7
2017-07-23T22:35:11.179Z,90.0
2017-07-23T22:36:12.788Z,87.8
2017-07-23T22:37:14.379Z,87.8
2017-07-23T22:38:15.976Z,88.5
2017-07-23T22:39:17.587Z,88.5
2017-07-23T22:40:19.194Z,88.5
2017-07-23T22:41:20.785Z,88.8
2017-07-23T22:42:22.395Z,88.9
2017-07-23T22:43:24.003Z,89.8
2017-07-23T22:44:25.596Z,89.5
2017-07-23T22:45:27.202Z,89.8
2017-07-23T22:46:28.806Z,89.4
2017-07-23T22:47:30.395Z,90.6
2017-07-23T22:48:31.989Z,90.2
2017-07-23T22:49:33.584Z,89.9
2017-07-23T22:50:35.193Z,88.7
2017-07-23T22:51:36.811Z,88.6
2017-07-23T22:52:38.421Z,89.4
2017-07-23T22:53:40.032Z,89.9
2017-07-23T22:54:41.639Z,89.6
2017-07-23T22:55:43.264Z,89.6
2017-07-23T22:56:44.842Z,89.9
2017-07-23T22:57:46.443Z,90.4
2017-07-23T22:58:48.038Z,90.5
2017-07-23T22:59:49.655Z,90.5
2017-07-23T23:00:51.271Z,90.6
2017-07-23T23:01:52.862Z,90.3
2017-07-23T23:02:54.458Z,89.7
2017-07-23T23:03:56.057Z,89.4
2017-07-23T23:04:57.734Z,88.9
2017-07-23T23:05:59.347Z,89.0
2017-07-23T23:07:00.954Z,90.2
2017-07-23T23:08:02.564Z,90.2
2017-07-23T23:09:04.158Z,90.6
2017-07-23T23:10:05.753Z,90.1
2017-07-23T23:11:07.350Z,90.8
2017-07-23T23:12:08.954Z,91.1
2017-07-23T23:13:10.550Z,90.6
2017-07-23T23:14:12.162Z,90.4
2017-07-23T23:15:13.772Z,89.5
2017-07-23T23:16:15.377Z,89.8
2017-07-23T23:17:16.983Z,89.4
2017-07-23T23:18:19.108Z,89.4
2017-07-23T23:19:20.725Z,90.7
2017-07-23T23:20:22.312Z,90.7
2017-07-23T23:21:23.924Z,90.3
2017-07-23T23:22:25.518Z,90.0
2017-07-23T23:23:27.112Z,91.1
2017-07-23T23:24:28.704Z,91.0
2017-07-23T23:25:30.297Z,90.5
2017-07-23T23:26:31.899Z,90.2
2017-07-23T23:27:33.503Z,90.8
2017-07-23T23:28:35.100Z,90.1
2017-07-23T23:29:36.715Z,90.6
2017-07-23T23:30:38.318Z,91.0
2017-07-23T23:31:39.910Z,90.8
2017-07-23T23:32:41.521Z,90.2
2017-07-23T23:33:43.129Z,89.6
2017-07-23T23:34:44.724Z,90.6
2017-07-23T23:35:46.335Z,90.3
2017-07-23T23:36:47.946Z,90.3
2017-07-23T23:37:49.549Z,90.5
2017-07-23T23:38:51.163Z,90.0
2017-07-23T23:39:52.750Z,90.5
2017-07-23T23:40:54.344Z,90.3
2017-07-23T23:41:55.938Z,90.2
2017-07-23T23:42:57.547Z,90.4
2017-07-23T23:43:59.139Z,90.3
2017-07-23T23:45:00.734Z,90.0
2017-07-23T23:46:02.358Z,91.0
2017-07-23T23:47:03.953Z,90.4
2017-07-23T23:48:05.561Z,90.5
2017-07-23T23:49:07.166Z,90.3
2017-07-23T23:50:08.760Z,89.6
2017-07-23T23:51:10.357Z,89.5
2017-07-23T23:52:11.950Z,89.5
2017-07-23T23:53:13.557Z,89.0
2017-07-23T23:54:15.161Z,89.0
2017-07-23T23:55:16.757Z,89.3
2017-07-23T23:56:18.351Z,89.7
2017-07-23T23:57:19.959Z,88.2
2017-07-23T23:58:21.554Z,89.2
2017-07-23T23:59:23.151Z,89.1
